sensor_id;sensor_type;location;lat;lon;timestamp;temperature;humidity
34135;DHT22;20410;55.578;12.968;2023-05-07T00:00:21;4.70;1.00
34135;DHT22;20410;55.578;12.968;2023-05-07T00:02:47;4.70;1.00
34135;DHT22;20410;55.578;12.968;2023-05-07T00:05:13;4.70;1.00
34135;DHT22;20410;55.578;12.968;2023-05-07T00:07:38;4.70;1.00
34135;DHT22;20410;55.578;12.968;2023-05-07T00:10:04;4.70;1.00
34135;DHT22;20410;55.578;12.968;2023-05-07T00:12:32;4.70;1.00
34135;DHT22;20410;55.578;12.968;2023-05-07T00:15:00;4.70;1.00
34135;DHT22;20410;55.578;12.968;2023-05-07T00:17:25;4.70;1.00
34135;DHT22;20410;55.578;12.968;2023-05-07T00:19:51;4.70;1.00
34135;DHT22;20410;55.578;12.968;2023-05-07T00:22:16;4.70;1.00
34135;DHT22;20410;55.578;12.968;2023-05-07T00:24:42;4.70;1.00
34135;DHT22;20410;55.578;12.968;2023-05-07T00:27:08;4.60;1.00
34135;DHT22;20410;55.578;12.968;2023-05-07T00:29:34;4.70;1.00
34135;DHT22;20410;55.578;12.968;2023-05-07T00:31:59;4.70;1.00
34135;DHT22;20410;55.578;12.968;2023-05-07T00:34:25;4.70;1.00
34135;DHT22;20410;55.578;12.968;2023-05-07T00:36:51;4.70;1.00
34135;DHT22;20410;55.578;12.968;2023-05-07T00:39:16;4.70;1.00
34135;DHT22;20410;55.578;12.968;2023-05-07T00:41:42;4.80;1.00
34135;DHT22;20410;55.578;12.968;2023-05-07T00:44:07;4.80;1.00
34135;DHT22;20410;55.578;12.968;2023-05-07T00:46:34;4.90;1.00
34135;DHT22;20410;55.578;12.968;2023-05-07T00:48:59;4.90;1.00
34135;DHT22;20410;55.578;12.968;2023-05-07T00:51:26;4.80;1.00
34135;DHT22;20410;55.578;12.968;2023-05-07T00:53:54;4.80;1.00
34135;DHT22;20410;55.578;12.968;2023-05-07T00:56:21;4.80;1.00
34135;DHT22;20410;55.578;12.968;2023-05-07T00:58:48;4.80;1.00
34135;DHT22;20410;55.578;12.968;2023-05-07T01:01:13;4.80;1.00
34135;DHT22;20410;55.578;12.968;2023-05-07T01:03:42;4.80;1.00
34135;DHT22;20410;55.578;12.968;2023-05-07T01:06:08;4.80;1.00
34135;DHT22;20410;55.578;12.968;2023-05-07T01:08:35;4.80;1.00
34135;DHT22;20410;55.578;12.968;2023-05-07T01:11:01;4.80;1.00
34135;DHT22;20410;55.578;12.968;2023-05-07T01:13:27;4.70;1.00
34135;DHT22;20410;55.578;12.968;2023-05-07T01:15:53;4.70;1.00
34135;DHT22;20410;55.578;12.968;2023-05-07T01:18:19;4.70;1.00
34135;DHT22;20410;55.578;12.968;2023-05-07T01:20:45;4.60;1.00
34135;DHT22;20410;55.578;12.968;2023-05-07T01:23:11;4.60;1.00
34135;DHT22;20410;55.578;12.968;2023-05-07T01:25:37;4.60;1.00
34135;DHT22;20410;55.578;12.968;2023-05-07T01:28:03;4.60;1.00
34135;DHT22;20410;55.578;12.968;2023-05-07T01:30:29;4.60;1.00
34135;DHT22;20410;55.578;12.968;2023-05-07T01:35:32;4.50;1.00
34135;DHT22;20410;55.578;12.968;2023-05-07T01:38:00;4.50;1.00
34135;DHT22;20410;55.578;12.968;2023-05-07T01:40:27;4.50;1.00
34135;DHT22;20410;55.578;12.968;2023-05-07T01:42:53;4.40;1.00
34135;DHT22;20410;55.578;12.968;2023-05-07T01:45:19;4.40;1.00
34135;DHT22;20410;55.578;12.968;2023-05-07T01:47:45;4.40;1.00
34135;DHT22;20410;55.578;12.968;2023-05-07T01:50:12;4.40;1.00
34135;DHT22;20410;55.578;12.968;2023-05-07T01:52:38;4.40;1.00
34135;DHT22;20410;55.578;12.968;2023-05-07T01:55:04;4.50;1.00
34135;DHT22;20410;55.578;12.968;2023-05-07T01:57:30;4.50;1.00
34135;DHT22;20410;55.578;12.968;2023-05-07T01:59:56;4.50;1.00
34135;DHT22;20410;55.578;12.968;2023-05-07T02:02:21;4.40;1.00
34135;DHT22;20410;55.578;12.968;2023-05-07T02:04:47;4.50;1.00
34135;DHT22;20410;55.578;12.968;2023-05-07T02:07:12;4.40;1.00
34135;DHT22;20410;55.578;12.968;2023-05-07T02:09:38;4.40;1.00
34135;DHT22;20410;55.578;12.968;2023-05-07T02:12:04;4.40;1.00
34135;DHT22;20410;55.578;12.968;2023-05-07T02:14:29;4.30;1.00
34135;DHT22;20410;55.578;12.968;2023-05-07T02:16:55;4.40;1.60
34135;DHT22;20410;55.578;12.968;2023-05-07T02:19:21;4.30;1.00
34135;DHT22;20410;55.578;12.968;2023-05-07T02:21:47;4.30;1.00
34135;DHT22;20410;55.578;12.968;2023-05-07T02:24:13;4.40;1.00
34135;DHT22;20410;55.578;12.968;2023-05-07T02:26:39;4.30;1.00
34135;DHT22;20410;55.578;12.968;2023-05-07T02:29:05;4.40;1.00
34135;DHT22;20410;55.578;12.968;2023-05-07T02:31:30;4.40;1.00
34135;DHT22;20410;55.578;12.968;2023-05-07T02:33:56;4.40;1.00
34135;DHT22;20410;55.578;12.968;2023-05-07T02:36:22;4.40;1.00
34135;DHT22;20410;55.578;12.968;2023-05-07T02:38:47;4.40;1.00
34135;DHT22;20410;55.578;12.968;2023-05-07T02:41:13;4.40;1.00
34135;DHT22;20410;55.578;12.968;2023-05-07T02:43:38;4.50;1.00
34135;DHT22;20410;55.578;12.968;2023-05-07T02:46:08;4.50;1.00
34135;DHT22;20410;55.578;12.968;2023-05-07T02:48:34;4.50;1.00
34135;DHT22;20410;55.578;12.968;2023-05-07T02:51:00;4.50;1.00
34135;DHT22;20410;55.578;12.968;2023-05-07T02:53:26;4.60;1.00
34135;DHT22;20410;55.578;12.968;2023-05-07T02:55:59;4.60;1.00
34135;DHT22;20410;55.578;12.968;2023-05-07T02:58:25;4.60;1.00
34135;DHT22;20410;55.578;12.968;2023-05-07T03:00:52;4.50;1.00
34135;DHT22;20410;55.578;12.968;2023-05-07T03:03:17;4.60;1.00
34135;DHT22;20410;55.578;12.968;2023-05-07T03:05:43;4.60;1.00
34135;DHT22;20410;55.578;12.968;2023-05-07T03:08:09;4.60;1.00
34135;DHT22;20410;55.578;12.968;2023-05-07T03:10:36;4.50;1.00
34135;DHT22;20410;55.578;12.968;2023-05-07T03:13:02;4.50;1.00
34135;DHT22;20410;55.578;12.968;2023-05-07T03:15:28;4.60;1.00
34135;DHT22;20410;55.578;12.968;2023-05-07T03:17:53;4.50;1.00
34135;DHT22;20410;55.578;12.968;2023-05-07T03:20:19;4.50;1.00
34135;DHT22;20410;55.578;12.968;2023-05-07T03:22:45;4.50;1.00
34135;DHT22;20410;55.578;12.968;2023-05-07T03:25:10;4.60;1.00
34135;DHT22;20410;55.578;12.968;2023-05-07T03:27:37;4.60;1.00
34135;DHT22;20410;55.578;12.968;2023-05-07T03:30:04;4.60;1.00
34135;DHT22;20410;55.578;12.968;2023-05-07T03:32:29;4.60;1.00
34135;DHT22;20410;55.578;12.968;2023-05-07T03:34:55;4.60;1.00
34135;DHT22;20410;55.578;12.968;2023-05-07T03:37:21;4.60;1.00
34135;DHT22;20410;55.578;12.968;2023-05-07T03:39:47;4.60;1.00
34135;DHT22;20410;55.578;12.968;2023-05-07T03:42:12;4.60;1.00
34135;DHT22;20410;55.578;12.968;2023-05-07T03:44:38;4.60;1.00
34135;DHT22;20410;55.578;12.968;2023-05-07T03:47:04;4.60;1.00
34135;DHT22;20410;55.578;12.968;2023-05-07T03:49:29;4.60;1.00
34135;DHT22;20410;55.578;12.968;2023-05-07T03:51:55;4.60;1.00
34135;DHT22;20410;55.578;12.968;2023-05-07T03:54:21;4.80;1.00
34135;DHT22;20410;55.578;12.968;2023-05-07T03:56:46;4.80;1.00
34135;DHT22;20410;55.578;12.968;2023-05-07T03:59:15;4.90;1.00
34135;DHT22;20410;55.578;12.968;2023-05-07T04:01:40;5.00;1.00
34135;DHT22;20410;55.578;12.968;2023-05-07T04:04:06;5.10;1.00
34135;DHT22;20410;55.578;12.968;2023-05-07T04:06:32;5.10;1.00
34135;DHT22;20410;55.578;12.968;2023-05-07T04:08:57;5.20;1.00
34135;DHT22;20410;55.578;12.968;2023-05-07T04:11:23;5.20;1.00
34135;DHT22;20410;55.578;12.968;2023-05-07T04:13:49;5.30;1.00
34135;DHT22;20410;55.578;12.968;2023-05-07T04:16:14;5.40;1.00
34135;DHT22;20410;55.578;12.968;2023-05-07T04:18:40;5.40;1.00
34135;DHT22;20410;55.578;12.968;2023-05-07T04:21:13;5.50;1.00
34135;DHT22;20410;55.578;12.968;2023-05-07T04:23:39;5.50;1.00
34135;DHT22;20410;55.578;12.968;2023-05-07T04:26:04;5.40;1.00
34135;DHT22;20410;55.578;12.968;2023-05-07T04:28:30;5.40;1.00
34135;DHT22;20410;55.578;12.968;2023-05-07T04:30:55;5.40;1.00
34135;DHT22;20410;55.578;12.968;2023-05-07T04:33:21;5.40;1.00
34135;DHT22;20410;55.578;12.968;2023-05-07T04:35:46;5.30;1.00
34135;DHT22;20410;55.578;12.968;2023-05-07T04:38:12;5.30;1.00
34135;DHT22;20410;55.578;12.968;2023-05-07T04:40:38;5.30;1.00
34135;DHT22;20410;55.578;12.968;2023-05-07T04:43:04;5.30;1.00
34135;DHT22;20410;55.578;12.968;2023-05-07T04:45:30;5.40;1.00
34135;DHT22;20410;55.578;12.968;2023-05-07T04:47:55;5.30;1.00
34135;DHT22;20410;55.578;12.968;2023-05-07T04:50:21;5.30;1.00
34135;DHT22;20410;55.578;12.968;2023-05-07T04:52:48;5.40;1.00
34135;DHT22;20410;55.578;12.968;2023-05-07T04:55:14;5.50;1.00
34135;DHT22;20410;55.578;12.968;2023-05-07T04:57:40;5.60;1.00
34135;DHT22;20410;55.578;12.968;2023-05-07T05:00:07;5.70;1.00
34135;DHT22;20410;55.578;12.968;2023-05-07T05:02:34;5.80;1.00
34135;DHT22;20410;55.578;12.968;2023-05-07T05:05:01;6.00;1.00
34135;DHT22;20410;55.578;12.968;2023-05-07T05:07:29;6.10;1.00
34135;DHT22;20410;55.578;12.968;2023-05-07T05:09:55;6.10;1.00
34135;DHT22;20410;55.578;12.968;2023-05-07T05:12:21;6.20;1.00
34135;DHT22;20410;55.578;12.968;2023-05-07T05:14:46;6.40;1.00
34135;DHT22;20410;55.578;12.968;2023-05-07T05:17:12;6.60;1.00
34135;DHT22;20410;55.578;12.968;2023-05-07T05:19:38;6.70;1.00
34135;DHT22;20410;55.578;12.968;2023-05-07T05:22:03;6.70;1.00
34135;DHT22;20410;55.578;12.968;2023-05-07T05:24:30;6.70;1.00
34135;DHT22;20410;55.578;12.968;2023-05-07T05:26:56;6.80;1.00
34135;DHT22;20410;55.578;12.968;2023-05-07T05:29:21;6.80;1.00
34135;DHT22;20410;55.578;12.968;2023-05-07T05:31:47;6.80;1.00
34135;DHT22;20410;55.578;12.968;2023-05-07T05:34:13;6.80;1.00
34135;DHT22;20410;55.578;12.968;2023-05-07T05:36:38;6.90;1.00
34135;DHT22;20410;55.578;12.968;2023-05-07T05:39:04;6.90;1.00
34135;DHT22;20410;55.578;12.968;2023-05-07T05:41:30;6.90;1.00
34135;DHT22;20410;55.578;12.968;2023-05-07T05:43:55;6.90;1.00
34135;DHT22;20410;55.578;12.968;2023-05-07T05:46:21;7.00;1.00
34135;DHT22;20410;55.578;12.968;2023-05-07T05:48:47;7.10;1.00
34135;DHT22;20410;55.578;12.968;2023-05-07T05:51:12;7.20;1.00
34135;DHT22;20410;55.578;12.968;2023-05-07T05:53:38;7.30;1.00
34135;DHT22;20410;55.578;12.968;2023-05-07T05:56:04;7.40;1.00
34135;DHT22;20410;55.578;12.968;2023-05-07T05:58:30;7.60;1.00
34135;DHT22;20410;55.578;12.968;2023-05-07T06:00:55;7.60;1.00
34135;DHT22;20410;55.578;12.968;2023-05-07T06:03:22;7.70;1.00
34135;DHT22;20410;55.578;12.968;2023-05-07T06:05:47;7.90;1.00
34135;DHT22;20410;55.578;12.968;2023-05-07T06:08:13;8.00;1.00
34135;DHT22;20410;55.578;12.968;2023-05-07T06:10:39;8.20;1.00
34135;DHT22;20410;55.578;12.968;2023-05-07T06:13:05;8.30;1.00
34135;DHT22;20410;55.578;12.968;2023-05-07T06:15:31;8.20;1.00
34135;DHT22;20410;55.578;12.968;2023-05-07T06:17:56;8.30;1.00
34135;DHT22;20410;55.578;12.968;2023-05-07T06:20:23;8.40;1.00
34135;DHT22;20410;55.578;12.968;2023-05-07T06:22:49;8.60;1.00
34135;DHT22;20410;55.578;12.968;2023-05-07T06:25:14;8.80;1.00
34135;DHT22;20410;55.578;12.968;2023-05-07T06:27:40;8.90;1.00
34135;DHT22;20410;55.578;12.968;2023-05-07T06:30:06;9.10;1.00
34135;DHT22;20410;55.578;12.968;2023-05-07T06:32:32;9.30;1.00
34135;DHT22;20410;55.578;12.968;2023-05-07T06:34:58;9.50;1.00
34135;DHT22;20410;55.578;12.968;2023-05-07T06:37:23;9.60;1.00
34135;DHT22;20410;55.578;12.968;2023-05-07T06:39:49;9.80;1.00
34135;DHT22;20410;55.578;12.968;2023-05-07T06:42:15;9.70;1.00
34135;DHT22;20410;55.578;12.968;2023-05-07T06:44:40;9.90;1.00
34135;DHT22;20410;55.578;12.968;2023-05-07T06:47:06;10.10;1.00
34135;DHT22;20410;55.578;12.968;2023-05-07T06:49:32;10.20;1.00
34135;DHT22;20410;55.578;12.968;2023-05-07T06:51:58;10.40;1.00
34135;DHT22;20410;55.578;12.968;2023-05-07T06:54:24;10.50;1.00
34135;DHT22;20410;55.578;12.968;2023-05-07T06:56:49;10.70;1.00
34135;DHT22;20410;55.578;12.968;2023-05-07T06:59:15;10.80;1.00
34135;DHT22;20410;55.578;12.968;2023-05-07T07:01:41;11.00;1.00
34135;DHT22;20410;55.578;12.968;2023-05-07T07:04:06;11.10;1.00
34135;DHT22;20410;55.578;12.968;2023-05-07T07:06:32;11.30;1.00
34135;DHT22;20410;55.578;12.968;2023-05-07T07:08:59;11.50;1.00
34135;DHT22;20410;55.578;12.968;2023-05-07T07:11:24;11.50;1.00
34135;DHT22;20410;55.578;12.968;2023-05-07T07:13:50;11.70;1.00
34135;DHT22;20410;55.578;12.968;2023-05-07T07:16:16;11.90;1.00
34135;DHT22;20410;55.578;12.968;2023-05-07T07:18:42;12.10;1.00
34135;DHT22;20410;55.578;12.968;2023-05-07T07:21:07;12.30;1.00
34135;DHT22;20410;55.578;12.968;2023-05-07T07:23:33;12.40;1.00
34135;DHT22;20410;55.578;12.968;2023-05-07T07:25:58;12.60;1.00
34135;DHT22;20410;55.578;12.968;2023-05-07T07:28:24;12.80;1.00
34135;DHT22;20410;55.578;12.968;2023-05-07T07:30:50;12.90;1.00
34135;DHT22;20410;55.578;12.968;2023-05-07T07:33:16;13.00;1.00
34135;DHT22;20410;55.578;12.968;2023-05-07T07:35:41;13.10;1.00
34135;DHT22;20410;55.578;12.968;2023-05-07T07:38:07;13.20;1.00
34135;DHT22;20410;55.578;12.968;2023-05-07T07:40:35;13.30;1.00
34135;DHT22;20410;55.578;12.968;2023-05-07T07:43:00;13.50;1.00
34135;DHT22;20410;55.578;12.968;2023-05-07T07:45:26;13.70;1.00
34135;DHT22;20410;55.578;12.968;2023-05-07T07:47:52;13.80;1.00
34135;DHT22;20410;55.578;12.968;2023-05-07T07:50:18;13.70;1.00
34135;DHT22;20410;55.578;12.968;2023-05-07T07:52:44;13.90;1.00
34135;DHT22;20410;55.578;12.968;2023-05-07T07:55:09;14.20;1.00
34135;DHT22;20410;55.578;12.968;2023-05-07T07:57:35;14.40;1.00
34135;DHT22;20410;55.578;12.968;2023-05-07T08:00:01;14.60;1.00
34135;DHT22;20410;55.578;12.968;2023-05-07T08:02:27;14.80;1.00
34135;DHT22;20410;55.578;12.968;2023-05-07T08:04:52;14.80;1.00
34135;DHT22;20410;55.578;12.968;2023-05-07T08:07:18;14.50;1.00
34135;DHT22;20410;55.578;12.968;2023-05-07T08:09:46;14.60;1.00
34135;DHT22;20410;55.578;12.968;2023-05-07T08:12:11;14.60;1.00
34135;DHT22;20410;55.578;12.968;2023-05-07T08:14:37;14.80;1.00
34135;DHT22;20410;55.578;12.968;2023-05-07T08:17:03;15.20;1.00
34135;DHT22;20410;55.578;12.968;2023-05-07T08:19:28;15.30;99.90
34135;DHT22;20410;55.578;12.968;2023-05-07T08:21:54;15.30;99.90
34135;DHT22;20410;55.578;12.968;2023-05-07T08:24:21;15.00;99.90
34135;DHT22;20410;55.578;12.968;2023-05-07T08:26:46;15.20;99.90
34135;DHT22;20410;55.578;12.968;2023-05-07T08:29:12;15.50;99.90
34135;DHT22;20410;55.578;12.968;2023-05-07T08:31:37;15.80;99.90
34135;DHT22;20410;55.578;12.968;2023-05-07T08:34:06;15.80;99.90
34135;DHT22;20410;55.578;12.968;2023-05-07T08:36:32;15.90;99.90
34135;DHT22;20410;55.578;12.968;2023-05-07T08:38:58;16.20;99.90
34135;DHT22;20410;55.578;12.968;2023-05-07T08:41:24;16.50;99.90
34135;DHT22;20410;55.578;12.968;2023-05-07T08:43:50;16.70;99.90
34135;DHT22;20410;55.578;12.968;2023-05-07T08:46:21;16.90;99.90
34135;DHT22;20410;55.578;12.968;2023-05-07T08:48:50;16.80;99.90
34135;DHT22;20410;55.578;12.968;2023-05-07T08:51:18;16.80;99.90
34135;DHT22;20410;55.578;12.968;2023-05-07T08:53:44;16.60;99.90
34135;DHT22;20410;55.578;12.968;2023-05-07T08:56:11;16.50;99.90
34135;DHT22;20410;55.578;12.968;2023-05-07T08:58:37;16.60;99.90
34135;DHT22;20410;55.578;12.968;2023-05-07T09:01:07;16.80;99.90
34135;DHT22;20410;55.578;12.968;2023-05-07T09:03:33;16.90;99.90
34135;DHT22;20410;55.578;12.968;2023-05-07T09:05:59;17.10;99.90
34135;DHT22;20410;55.578;12.968;2023-05-07T09:08:26;17.30;99.90
34135;DHT22;20410;55.578;12.968;2023-05-07T09:10:52;17.50;99.90
34135;DHT22;20410;55.578;12.968;2023-05-07T09:13:18;17.60;99.90
34135;DHT22;20410;55.578;12.968;2023-05-07T09:15:43;17.10;99.90
34135;DHT22;20410;55.578;12.968;2023-05-07T09:18:09;16.70;99.90
34135;DHT22;20410;55.578;12.968;2023-05-07T09:20:37;16.50;99.90
34135;DHT22;20410;55.578;12.968;2023-05-07T09:23:02;16.50;99.90
34135;DHT22;20410;55.578;12.968;2023-05-07T09:25:32;16.90;99.90
34135;DHT22;20410;55.578;12.968;2023-05-07T09:28:00;17.30;99.90
34135;DHT22;20410;55.578;12.968;2023-05-07T09:30:32;17.50;99.90
34135;DHT22;20410;55.578;12.968;2023-05-07T09:32:59;17.40;99.90
34135;DHT22;20410;55.578;12.968;2023-05-07T09:35:25;17.40;99.90
34135;DHT22;20410;55.578;12.968;2023-05-07T09:37:55;17.30;99.90
34135;DHT22;20410;55.578;12.968;2023-05-07T09:40:23;17.40;99.90
34135;DHT22;20410;55.578;12.968;2023-05-07T09:42:49;17.40;99.90
34135;DHT22;20410;55.578;12.968;2023-05-07T09:45:16;17.60;99.90
34135;DHT22;20410;55.578;12.968;2023-05-07T09:47:43;17.60;99.90
34135;DHT22;20410;55.578;12.968;2023-05-07T09:50:12;17.20;99.90
34135;DHT22;20410;55.578;12.968;2023-05-07T09:52:41;16.80;99.90
34135;DHT22;20410;55.578;12.968;2023-05-07T09:55:08;16.90;99.90
34135;DHT22;20410;55.578;12.968;2023-05-07T09:57:34;16.90;99.90
34135;DHT22;20410;55.578;12.968;2023-05-07T10:00:02;16.70;99.90
34135;DHT22;20410;55.578;12.968;2023-05-07T10:02:31;17.10;99.90
34135;DHT22;20410;55.578;12.968;2023-05-07T10:05:00;17.40;99.90
34135;DHT22;20410;55.578;12.968;2023-05-07T10:07:27;17.40;99.90
34135;DHT22;20410;55.578;12.968;2023-05-07T10:09:54;17.30;99.90
34135;DHT22;20410;55.578;12.968;2023-05-07T10:12:20;17.20;99.90
34135;DHT22;20410;55.578;12.968;2023-05-07T10:14:46;17.60;99.90
34135;DHT22;20410;55.578;12.968;2023-05-07T10:17:13;17.80;99.90
34135;DHT22;20410;55.578;12.968;2023-05-07T10:19:43;17.90;96.30
34135;DHT22;20410;55.578;12.968;2023-05-07T10:22:09;18.10;99.90
34135;DHT22;20410;55.578;12.968;2023-05-07T10:24:36;18.30;99.90
34135;DHT22;20410;55.578;12.968;2023-05-07T10:27:07;18.00;99.90
34135;DHT22;20410;55.578;12.968;2023-05-07T10:29:39;17.90;99.90
34135;DHT22;20410;55.578;12.968;2023-05-07T10:34:59;18.20;99.90
34135;DHT22;20410;55.578;12.968;2023-05-07T10:37:26;18.60;99.90
34135;DHT22;20410;55.578;12.968;2023-05-07T10:39:52;18.70;99.90
34135;DHT22;20410;55.578;12.968;2023-05-07T10:42:18;18.80;11.60
34135;DHT22;20410;55.578;12.968;2023-05-07T10:44:43;18.70;89.10
34135;DHT22;20410;55.578;12.968;2023-05-07T10:47:11;18.70;99.90
34135;DHT22;20410;55.578;12.968;2023-05-07T10:52:29;18.90;1.00
34135;DHT22;20410;55.578;12.968;2023-05-07T10:57:45;19.00;1.00
34135;DHT22;20410;55.578;12.968;2023-05-07T11:05:31;19.10;1.00
34135;DHT22;20410;55.578;12.968;2023-05-07T11:08:04;19.30;1.00
34135;DHT22;20410;55.578;12.968;2023-05-07T11:13:15;19.40;1.00
34135;DHT22;20410;55.578;12.968;2023-05-07T11:15:46;19.20;8.90
34135;DHT22;20410;55.578;12.968;2023-05-07T11:18:16;19.40;1.00
34135;DHT22;20410;55.578;12.968;2023-05-07T11:20:50;19.10;1.00
34135;DHT22;20410;55.578;12.968;2023-05-07T11:26:01;18.80;1.00
34135;DHT22;20410;55.578;12.968;2023-05-07T11:28:28;18.70;1.00
34135;DHT22;20410;55.578;12.968;2023-05-07T11:30:54;18.90;1.00
34135;DHT22;20410;55.578;12.968;2023-05-07T11:33:20;19.10;1.00
34135;DHT22;20410;55.578;12.968;2023-05-07T11:35:46;19.20;1.00
34135;DHT22;20410;55.578;12.968;2023-05-07T11:38:13;19.40;1.00
34135;DHT22;20410;55.578;12.968;2023-05-07T11:41:07;19.40;1.00
34135;DHT22;20410;55.578;12.968;2023-05-07T11:43:33;19.40;5.70
34135;DHT22;20410;55.578;12.968;2023-05-07T11:46:11;19.30;11.70
34135;DHT22;20410;55.578;12.968;2023-05-07T11:48:38;19.50;1.00
34135;DHT22;20410;55.578;12.968;2023-05-07T11:51:05;19.00;1.00
34135;DHT22;20410;55.578;12.968;2023-05-07T11:53:39;19.10;1.00
34135;DHT22;20410;55.578;12.968;2023-05-07T11:56:09;19.30;1.00
34135;DHT22;20410;55.578;12.968;2023-05-07T11:58:35;19.60;1.00
34135;DHT22;20410;55.578;12.968;2023-05-07T12:01:01;19.50;1.00
34135;DHT22;20410;55.578;12.968;2023-05-07T12:03:27;18.70;99.90
34135;DHT22;20410;55.578;12.968;2023-05-07T12:05:53;18.70;1.00
34135;DHT22;20410;55.578;12.968;2023-05-07T12:08:20;18.90;1.00
34135;DHT22;20410;55.578;12.968;2023-05-07T12:10:48;18.80;1.00
34135;DHT22;20410;55.578;12.968;2023-05-07T12:13:15;18.80;1.00
34135;DHT22;20410;55.578;12.968;2023-05-07T12:15:42;19.00;1.00
34135;DHT22;20410;55.578;12.968;2023-05-07T12:18:08;19.20;1.00
34135;DHT22;20410;55.578;12.968;2023-05-07T12:20:35;19.20;1.00
34135;DHT22;20410;55.578;12.968;2023-05-07T12:23:01;18.90;1.00
34135;DHT22;20410;55.578;12.968;2023-05-07T12:25:30;18.80;1.00
34135;DHT22;20410;55.578;12.968;2023-05-07T12:27:56;19.10;1.00
34135;DHT22;20410;55.578;12.968;2023-05-07T12:30:24;19.10;1.00
34135;DHT22;20410;55.578;12.968;2023-05-07T12:32:55;19.00;1.00
34135;DHT22;20410;55.578;12.968;2023-05-07T12:35:32;18.90;1.00
34135;DHT22;20410;55.578;12.968;2023-05-07T12:37:59;19.00;1.00
34135;DHT22;20410;55.578;12.968;2023-05-07T12:40:36;19.00;1.00
34135;DHT22;20410;55.578;12.968;2023-05-07T12:43:01;19.10;1.00
34135;DHT22;20410;55.578;12.968;2023-05-07T12:45:27;19.10;1.00
34135;DHT22;20410;55.578;12.968;2023-05-07T12:47:53;19.10;1.00
34135;DHT22;20410;55.578;12.968;2023-05-07T12:50:18;19.30;1.00
34135;DHT22;20410;55.578;12.968;2023-05-07T12:52:47;19.50;1.00
34135;DHT22;20410;55.578;12.968;2023-05-07T12:55:17;18.90;99.90
34135;DHT22;20410;55.578;12.968;2023-05-07T12:57:45;18.20;1.00
34135;DHT22;20410;55.578;12.968;2023-05-07T13:00:13;18.20;1.00
34135;DHT22;20410;55.578;12.968;2023-05-07T13:02:41;18.70;1.00
34135;DHT22;20410;55.578;12.968;2023-05-07T13:05:07;19.10;1.00
34135;DHT22;20410;55.578;12.968;2023-05-07T13:07:33;19.00;1.00
34135;DHT22;20410;55.578;12.968;2023-05-07T13:09:59;18.90;99.90
34135;DHT22;20410;55.578;12.968;2023-05-07T13:12:25;19.10;1.00
34135;DHT22;20410;55.578;12.968;2023-05-07T13:14:50;19.20;1.00
34135;DHT22;20410;55.578;12.968;2023-05-07T13:17:16;19.40;1.00
34135;DHT22;20410;55.578;12.968;2023-05-07T13:19:42;19.60;1.00
34135;DHT22;20410;55.578;12.968;2023-05-07T13:22:07;19.70;99.90
34135;DHT22;20410;55.578;12.968;2023-05-07T13:24:33;19.30;99.90
34135;DHT22;20410;55.578;12.968;2023-05-07T13:26:58;19.50;1.00
34135;DHT22;20410;55.578;12.968;2023-05-07T13:29:24;19.30;99.90
34135;DHT22;20410;55.578;12.968;2023-05-07T13:31:54;19.10;1.00
34135;DHT22;20410;55.578;12.968;2023-05-07T13:34:20;19.40;1.00
34135;DHT22;20410;55.578;12.968;2023-05-07T13:36:46;19.40;1.00
34135;DHT22;20410;55.578;12.968;2023-05-07T13:39:11;19.30;1.00
34135;DHT22;20410;55.578;12.968;2023-05-07T13:41:37;19.40;99.90
34135;DHT22;20410;55.578;12.968;2023-05-07T13:44:02;19.40;99.90
34135;DHT22;20410;55.578;12.968;2023-05-07T13:46:28;19.10;99.90
34135;DHT22;20410;55.578;12.968;2023-05-07T13:48:55;19.10;1.00
34135;DHT22;20410;55.578;12.968;2023-05-07T13:51:20;19.30;99.90
34135;DHT22;20410;55.578;12.968;2023-05-07T13:53:47;19.30;99.90
34135;DHT22;20410;55.578;12.968;2023-05-07T13:56:12;19.40;1.00
34135;DHT22;20410;55.578;12.968;2023-05-07T13:58:38;19.60;1.00
34135;DHT22;20410;55.578;12.968;2023-05-07T14:01:04;19.60;99.90
34135;DHT22;20410;55.578;12.968;2023-05-07T14:03:29;19.60;1.00
34135;DHT22;20410;55.578;12.968;2023-05-07T14:05:57;19.60;99.90
34135;DHT22;20410;55.578;12.968;2023-05-07T14:08:25;19.60;99.90
34135;DHT22;20410;55.578;12.968;2023-05-07T14:10:51;19.60;99.90
34135;DHT22;20410;55.578;12.968;2023-05-07T14:13:16;19.50;99.90
34135;DHT22;20410;55.578;12.968;2023-05-07T14:15:42;18.90;1.00
34135;DHT22;20410;55.578;12.968;2023-05-07T14:18:12;18.70;99.90
34135;DHT22;20410;55.578;12.968;2023-05-07T14:20:38;18.60;99.90
34135;DHT22;20410;55.578;12.968;2023-05-07T14:23:04;18.70;1.00
34135;DHT22;20410;55.578;12.968;2023-05-07T14:25:29;18.80;1.00
34135;DHT22;20410;55.578;12.968;2023-05-07T14:27:55;19.00;99.90
34135;DHT22;20410;55.578;12.968;2023-05-07T14:30:21;19.00;99.90
34135;DHT22;20410;55.578;12.968;2023-05-07T14:32:49;19.10;99.90
34135;DHT22;20410;55.578;12.968;2023-05-07T14:35:15;19.10;99.90
34135;DHT22;20410;55.578;12.968;2023-05-07T14:37:41;18.70;1.00
34135;DHT22;20410;55.578;12.968;2023-05-07T14:40:07;18.70;99.90
34135;DHT22;20410;55.578;12.968;2023-05-07T14:42:33;18.50;1.00
34135;DHT22;20410;55.578;12.968;2023-05-07T14:44:58;18.40;99.90
34135;DHT22;20410;55.578;12.968;2023-05-07T14:47:24;18.40;99.90
34135;DHT22;20410;55.578;12.968;2023-05-07T14:49:50;18.40;99.90
34135;DHT22;20410;55.578;12.968;2023-05-07T14:52:16;17.90;45.30
34135;DHT22;20410;55.578;12.968;2023-05-07T14:54:42;17.80;1.00
34135;DHT22;20410;55.578;12.968;2023-05-07T14:57:09;18.00;99.90
34135;DHT22;20410;55.578;12.968;2023-05-07T14:59:35;18.30;1.00
34135;DHT22;20410;55.578;12.968;2023-05-07T15:02:01;18.30;99.90
34135;DHT22;20410;55.578;12.968;2023-05-07T15:04:27;18.10;1.00
34135;DHT22;20410;55.578;12.968;2023-05-07T15:06:53;18.00;99.90
34135;DHT22;20410;55.578;12.968;2023-05-07T15:09:21;18.20;1.00
34135;DHT22;20410;55.578;12.968;2023-05-07T15:11:47;18.30;99.90
34135;DHT22;20410;55.578;12.968;2023-05-07T15:14:12;18.20;99.90
34135;DHT22;20410;55.578;12.968;2023-05-07T15:16:38;18.00;99.90
34135;DHT22;20410;55.578;12.968;2023-05-07T15:19:03;18.10;99.90
34135;DHT22;20410;55.578;12.968;2023-05-07T15:21:29;18.10;99.90
34135;DHT22;20410;55.578;12.968;2023-05-07T15:23:58;18.10;99.90
34135;DHT22;20410;55.578;12.968;2023-05-07T15:26:23;18.10;99.90
34135;DHT22;20410;55.578;12.968;2023-05-07T15:28:49;18.30;1.00
34135;DHT22;20410;55.578;12.968;2023-05-07T15:31:15;18.20;99.90
34135;DHT22;20410;55.578;12.968;2023-05-07T15:33:42;18.30;86.70
34135;DHT22;20410;55.578;12.968;2023-05-07T15:36:07;18.30;1.00
34135;DHT22;20410;55.578;12.968;2023-05-07T15:38:33;18.30;31.20
34135;DHT22;20410;55.578;12.968;2023-05-07T15:40:59;18.20;1.00
34135;DHT22;20410;55.578;12.968;2023-05-07T15:43:24;18.30;34.60
34135;DHT22;20410;55.578;12.968;2023-05-07T15:45:50;18.20;22.10
34135;DHT22;20410;55.578;12.968;2023-05-07T15:48:16;18.10;99.90